Time;durP1;ratioP1;P1;durP2;ratioP2;P2;SDS_P1;SDS_P2;PMS_P1;PMS_P2;Temp;Humidity;BMP_temperature;BMP_pressure;BME280_temperature;BME280_humidity;BME280_pressure;Samples;Min_cycle;Max_cycle;Signal;HPM_P1;HPM_P2
2023/04/29 00:02:00;;;;;;;5.47;3.90;;;;;;;;;;5137738;27;20022;-80
2023/04/29 00:04:25;;;;;;;6.40;3.47;;;;;;;;;;5137931;27;20041;-81
2023/04/29 00:06:50;;;;;;;5.95;3.63;;;;;;;;;;5120340;27;20023;-82
2023/04/29 00:09:16;;;;;;;4.03;3.03;;;;;;;;;;5137614;27;20061;-80
2023/04/29 00:11:41;;;;;;;4.88;3.40;;;;;;;;;;5103258;27;20378;-80
2023/04/29 00:14:06;;;;;;;4.43;3.53;;;;;;;;;;5137472;27;20037;-80
2023/04/29 00:16:32;;;;;;;7.18;3.78;;;;;;;;;;5137320;27;20027;-80
2023/04/29 00:18:58;;;;;;;4.68;3.28;;;;;;;;;;5137211;27;20473;-81
2023/04/29 00:21:26;;;;;;;4.93;3.28;;;;;;;;;;5155836;27;20401;-81
2023/04/29 00:23:52;;;;;;;5.88;3.50;;;;;;;;;;5155753;27;20030;-81
2023/04/29 00:26:17;;;;;;;4.03;3.28;;;;;;;;;;5137244;27;20025;-80
2023/04/29 00:28:42;;;;;;;4.75;3.30;;;;;;;;;;5155865;27;20035;-81
2023/04/29 00:31:08;;;;;;;4.32;3.40;;;;;;;;;;5136982;27;20022;-80
2023/04/29 00:33:33;;;;;;;4.70;3.35;;;;;;;;;;5137367;27;20027;-81
2023/04/29 00:35:58;;;;;;;5.40;3.33;;;;;;;;;;5155572;27;20023;-80
2023/04/29 00:38:24;;;;;;;5.03;3.50;;;;;;;;;;5136987;27;20118;-80
2023/04/29 00:40:50;;;;;;;3.97;3.20;;;;;;;;;;5137283;27;20030;-81
2023/04/29 00:43:15;;;;;;;4.50;3.42;;;;;;;;;;5155908;27;20038;-80
2023/04/29 00:45:41;;;;;;;5.25;3.58;;;;;;;;;;5155573;27;20031;-81
2023/04/29 00:48:06;;;;;;;5.03;3.13;;;;;;;;;;5133177;27;20055;-80
2023/04/29 00:50:32;;;;;;;4.00;3.10;;;;;;;;;;5116182;27;20035;-80
2023/04/29 00:52:58;;;;;;;4.50;3.00;;;;;;;;;;5134549;27;20019;-81
2023/04/29 00:55:24;;;;;;;3.63;2.88;;;;;;;;;;5098977;27;20027;-80
2023/04/29 00:57:51;;;;;;;5.13;3.45;;;;;;;;;;5099526;27;20033;-80
2023/04/29 01:00:17;;;;;;;5.63;3.10;;;;;;;;;;5116670;27;20393;-80
2023/04/29 01:02:44;;;;;;;3.70;3.22;;;;;;;;;;5082324;27;20466;-80
2023/04/29 01:05:09;;;;;;;4.07;3.00;;;;;;;;;;5116251;27;20020;-80
2023/04/29 01:08:05;;;;;;;4.72;3.20;;;;;;;;;;5115929;27;20396;-81
2023/04/29 01:10:39;;;;;;;3.97;3.03;;;;;;;;;;5134485;27;20034;-80
2023/04/29 01:13:04;;;;;;;5.03;3.28;;;;;;;;;;5116333;28;20076;-80
2023/04/29 01:15:38;;;;;;;3.53;2.90;;;;;;;;;;5134307;27;20023;-80
2023/04/29 01:18:11;;;;;;;3.70;2.83;;;;;;;;;;5116011;27;20031;-80
2023/04/29 01:20:37;;;;;;;;;;;;;;;;;;5116420;28;20027;-78
2023/04/29 01:23:03;;;;;;;3.58;2.90;;;;;;;;;;5134027;27;19957;-80
2023/04/29 01:25:28;;;;;;;3.05;2.72;;;;;;;;;;5115538;28;20489;-80
2023/04/29 01:28:04;;;;;;;4.45;3.00;;;;;;;;;;5116085;28;20044;-80
2023/04/29 01:30:57;;;;;;;3.60;2.83;;;;;;;;;;5115833;28;20085;-81
2023/04/29 01:33:49;;;;;;;3.83;3.00;;;;;;;;;;5134292;28;20073;-80
2023/04/29 01:36:22;;;;;;;3.75;2.88;;;;;;;;;;5134247;28;20080;-80
2023/04/29 01:39:07;;;;;;;4.35;3.08;;;;;;;;;;5133962;28;20019;-80
2023/04/29 01:41:41;;;;;;;3.83;2.90;;;;;;;;;;5116731;27;20416;-81
2023/04/29 01:44:07;;;;;;;4.05;3.10;;;;;;;;;;5120134;27;20066;-81
2023/04/29 01:46:34;;;;;;;5.57;3.20;;;;;;;;;;5119673;27;20019;-80
2023/04/29 01:48:59;;;;;;;4.03;2.90;;;;;;;;;;5119450;27;20054;-82
2023/04/29 01:51:25;;;;;;;4.18;2.80;;;;;;;;;;5119988;27;20023;-81
2023/04/29 01:53:50;;;;;;;4.60;3.33;;;;;;;;;;5119630;27;20401;-81
2023/04/29 01:56:16;;;;;;;3.97;3.00;;;;;;;;;;5102442;27;20031;-80
2023/04/29 01:58:41;;;;;;;4.10;2.75;;;;;;;;;;5138154;27;20035;-80
2023/04/29 02:01:09;;;;;;;3.42;2.63;;;;;;;;;;5138020;27;20019;-80
2023/04/29 02:03:35;;;;;;;3.80;2.88;;;;;;;;;;5120142;27;20110;-81
2023/04/29 02:06:01;;;;;;;3.58;2.95;;;;;;;;;;5137918;27;20046;-80
2023/04/29 02:08:26;;;;;;;4.03;2.58;;;;;;;;;;5119692;27;20076;-81
2023/04/29 02:10:56;;;;;;;3.85;2.60;;;;;;;;;;5119469;27;20027;-80
2023/04/29 02:13:21;;;;;;;5.47;3.20;;;;;;;;;;5119414;27;20378;-81
2023/04/29 02:15:47;;;;;;;3.65;2.67;;;;;;;;;;5137856;27;20037;-80
2023/04/29 02:18:13;;;;;;;3.35;2.70;;;;;;;;;;5102129;27;20023;-81
2023/04/29 02:20:38;;;;;;;5.50;3.38;;;;;;;;;;5137803;27;20023;-81
2023/04/29 02:23:03;;;;;;;3.72;2.83;;;;;;;;;;5101996;27;20392;-80
2023/04/29 02:25:29;;;;;;;3.25;2.80;;;;;;;;;;5118983;27;20036;-81
2023/04/29 02:27:55;;;;;;;3.40;2.83;;;;;;;;;;5118877;27;20049;-80
2023/04/29 02:30:20;;;;;;;3.45;2.75;;;;;;;;;;5119278;27;20031;-80
2023/04/29 02:32:45;;;;;;;4.65;2.67;;;;;;;;;;5119246;27;20019;-81
2023/04/29 02:35:11;;;;;;;3.10;2.72;;;;;;;;;;5118726;27;20428;-81
2023/04/29 02:37:37;;;;;;;3.80;3.10;;;;;;;;;;5118758;27;20031;-81
2023/04/29 02:40:03;;;;;;;3.45;2.80;;;;;;;;;;5101771;27;20139;-81
2023/04/29 02:42:28;;;;;;;2.90;2.55;;;;;;;;;;5102134;27;20079;-81
2023/04/29 02:44:54;;;;;;;4.13;2.70;;;;;;;;;;5119049;27;20054;-81
2023/04/29 02:47:19;;;;;;;3.97;2.83;;;;;;;;;;5118510;27;20030;-81
2023/04/29 02:49:44;;;;;;;4.22;2.88;;;;;;;;;;5118224;27;20047;-81
2023/04/29 02:52:10;;;;;;;4.30;3.00;;;;;;;;;;5101626;27;20107;-81
2023/04/29 02:54:36;;;;;;;3.58;2.70;;;;;;;;;;5118873;27;20502;-80
2023/04/29 02:57:02;;;;;;;3.63;3.00;;;;;;;;;;5118842;27;20484;-80
2023/04/29 02:59:27;;;;;;;6.18;3.15;;;;;;;;;;5118292;27;20027;-80
2023/04/29 03:01:53;;;;;;;5.50;2.88;;;;;;;;;;5118280;27;20027;-81
2023/04/29 03:04:19;;;;;;;4.57;2.80;;;;;;;;;;5136968;27;20080;-81
2023/04/29 03:06:44;;;;;;;3.47;2.65;;;;;;;;;;5101099;27;20031;-81
2023/04/29 03:09:11;;;;;;;3.95;2.70;;;;;;;;;;5118270;27;20477;-81
2023/04/29 03:11:36;;;;;;;4.80;2.80;;;;;;;;;;5136665;27;20031;-81
2023/04/29 03:14:02;;;;;;;3.42;2.65;;;;;;;;;;5117926;27;20031;-81
2023/04/29 03:16:28;;;;;;;7.40;2.90;;;;;;;;;;5117967;27;20469;-81
2023/04/29 03:18:53;;;;;;;5.95;2.83;;;;;;;;;;5136416;27;20546;-81
2023/04/29 03:21:18;;;;;;;4.45;3.30;;;;;;;;;;5100921;27;20067;-81
2023/04/29 03:23:44;;;;;;;4.25;2.88;;;;;;;;;;5136338;27;20034;-80
2023/04/29 03:26:10;;;;;;;3.78;2.50;;;;;;;;;;5117780;27;20084;-80
2023/04/29 03:28:35;;;;;;;4.18;2.60;;;;;;;;;;5117673;27;20035;-80
2023/04/29 03:31:01;;;;;;;3.63;2.92;;;;;;;;;;5100707;27;20027;-80
2023/04/29 03:33:27;;;;;;;4.28;3.08;;;;;;;;;;5136246;27;20022;-80
2023/04/29 03:35:53;;;;;;;3.20;2.70;;;;;;;;;;5101358;27;20359;-80
2023/04/29 03:38:18;;;;;;;2.97;2.47;;;;;;;;;;5136018;27;20062;-81
2023/04/29 03:40:44;;;;;;;3.03;2.58;;;;;;;;;;5100704;27;20027;-80
2023/04/29 03:43:10;;;;;;;4.65;2.60;;;;;;;;;;5137122;27;20035;-81
2023/04/29 03:45:36;;;;;;;3.95;3.00;;;;;;;;;;5117466;27;20032;-79
2023/04/29 03:48:02;;;;;;;3.10;2.50;;;;;;;;;;5117305;27;20058;-81
2023/04/29 03:50:28;;;;;;;4.05;2.45;;;;;;;;;;5117505;27;20135;-81
2023/04/29 03:52:53;;;;;;;4.07;2.78;;;;;;;;;;5117657;27;20487;-82
2023/04/29 03:55:19;;;;;;;2.60;2.40;;;;;;;;;;5117271;27;20037;-81
2023/04/29 03:57:44;;;;;;;4.15;2.95;;;;;;;;;;5117818;27;20030;-80
2023/04/29 04:00:10;;;;;;;3.70;2.90;;;;;;;;;;5117013;27;20038;-81
2023/04/29 04:02:35;;;;;;;4.75;2.80;;;;;;;;;;5117184;27;20084;-83
2023/04/29 04:05:01;;;;;;;3.25;2.80;;;;;;;;;;5134935;27;20128;-80
2023/04/29 04:07:26;;;;;;;4.75;3.25;;;;;;;;;;5135254;27;20059;-80
2023/04/29 04:09:51;;;;;;;4.35;3.50;;;;;;;;;;5135213;27;20023;-81
2023/04/29 04:12:17;;;;;;;3.70;3.00;;;;;;;;;;5117476;27;20143;-81
2023/04/29 04:14:42;;;;;;;5.10;3.25;;;;;;;;;;5116863;27;20378;-81
2023/04/29 04:17:08;;;;;;;4.03;2.83;;;;;;;;;;5135142;27;20023;-82
2023/04/29 04:19:33;;;;;;;3.95;2.80;;;;;;;;;;5117276;27;20031;-82
2023/04/29 04:21:58;;;;;;;4.57;2.90;;;;;;;;;;5099584;27;20288;-81
2023/04/29 04:24:24;;;;;;;3.13;2.72;;;;;;;;;;5116508;27;20400;-81
2023/04/29 04:26:49;;;;;;;3.10;2.80;;;;;;;;;;5135100;27;20023;-82
2023/04/29 04:29:15;;;;;;;4.05;2.95;;;;;;;;;;5116269;27;20058;-82
2023/04/29 04:31:40;;;;;;;3.33;2.90;;;;;;;;;;5099591;27;20035;-81
2023/04/29 04:34:05;;;;;;;3.67;2.90;;;;;;;;;;5116606;27;20038;-81
2023/04/29 04:36:31;;;;;;;4.20;2.88;;;;;;;;;;5116709;27;20110;-80
2023/04/29 04:38:57;;;;;;;5.22;2.85;;;;;;;;;;5135085;27;20031;-81
2023/04/29 04:41:22;;;;;;;3.33;2.60;;;;;;;;;;5134802;27;20228;-81
2023/04/29 04:43:48;;;;;;;3.20;2.83;;;;;;;;;;5099457;27;20079;-81
2023/04/29 04:46:14;;;;;;;4.45;2.80;;;;;;;;;;5116312;27;20047;-81
2023/04/29 04:48:40;;;;;;;5.07;3.10;;;;;;;;;;5116112;27;20578;-81
2023/04/29 04:51:10;;;;;;;3.25;2.60;;;;;;;;;;5116263;27;20031;-82
2023/04/29 04:53:36;;;;;;;3.28;2.72;;;;;;;;;;5134567;27;20030;-82
2023/04/29 04:56:02;;;;;;;3.72;2.70;;;;;;;;;;5116748;27;20517;-81
2023/04/29 04:58:27;;;;;;;5.68;2.70;;;;;;;;;;5116261;27;20075;-81
2023/04/29 05:00:52;;;;;;;4.38;3.05;;;;;;;;;;5116652;27;20031;-82
2023/04/29 05:03:18;;;;;;;2.88;2.35;;;;;;;;;;5099252;27;20035;-81
2023/04/29 05:05:43;;;;;;;3.58;2.17;;;;;;;;;;5099473;27;20028;-81
2023/04/29 05:08:09;;;;;;;3.60;2.65;;;;;;;;;;5135044;27;20031;-81
2023/04/29 05:10:37;;;;;;;3.08;2.70;;;;;;;;;;5116136;27;20038;-81
2023/04/29 05:13:02;;;;;;;2.88;2.45;;;;;;;;;;5099207;27;20494;-81
2023/04/29 05:15:28;;;;;;;3.63;2.60;;;;;;;;;;5115912;28;20110;-81
2023/04/29 05:17:53;;;;;;;2.92;2.30;;;;;;;;;;5098684;28;20027;-80
2023/04/29 05:20:22;;;;;;;2.92;2.58;;;;;;;;;;5134326;27;20477;-80
2023/04/29 05:22:47;;;;;;;4.28;2.97;;;;;;;;;;5099360;28;20027;-81
2023/04/29 05:25:13;;;;;;;2.85;2.40;;;;;;;;;;5134299;27;20381;-81
2023/04/29 05:27:38;;;;;;;5.95;2.92;;;;;;;;;;5099204;28;20114;-81
2023/04/29 05:30:05;;;;;;;3.35;2.53;;;;;;;;;;5115962;28;20531;-81
2023/04/29 05:32:30;;;;;;;3.60;2.45;;;;;;;;;;5115926;28;20490;-82
2023/04/29 05:34:55;;;;;;;4.47;2.45;;;;;;;;;;5115674;28;20035;-81
2023/04/29 05:37:21;;;;;;;5.65;2.75;;;;;;;;;;5098769;28;20046;-81
2023/04/29 05:39:46;;;;;;;3.67;2.53;;;;;;;;;;5115751;28;20114;-81
2023/04/29 05:42:11;;;;;;;4.47;3.15;;;;;;;;;;5134301;28;20038;-82
2023/04/29 05:44:38;;;;;;;3.72;2.90;;;;;;;;;;5115847;28;20027;-82
2023/04/29 05:47:04;;;;;;;3.40;2.53;;;;;;;;;;5134260;28;20031;-81
2023/04/29 05:49:29;;;;;;;3.25;2.65;;;;;;;;;;5133972;28;20143;-81
2023/04/29 05:51:55;;;;;;;3.25;2.80;;;;;;;;;;5115799;28;20069;-81
2023/04/29 05:54:20;;;;;;;2.97;2.67;;;;;;;;;;5116026;28;20031;-81
2023/04/29 05:56:45;;;;;;;4.10;2.85;;;;;;;;;;5116684;28;20016;-80
2023/04/29 05:59:11;;;;;;;3.88;2.63;;;;;;;;;;5134113;28;20031;-79
2023/04/29 06:01:37;;;;;;;3.28;2.80;;;;;;;;;;5115695;28;20056;-81
2023/04/29 06:04:03;;;;;;;4.07;2.88;;;;;;;;;;5133892;28;20400;-82
2023/04/29 06:06:28;;;;;;;5.93;3.13;;;;;;;;;;5098368;28;20023;-83
2023/04/29 06:08:53;;;;;;;6.15;3.53;;;;;;;;;;5133797;28;20409;-81
2023/04/29 06:11:19;;;;;;;6.13;2.63;;;;;;;;;;5115585;28;20027;-82
2023/04/29 06:13:44;;;;;;;5.50;3.25;;;;;;;;;;5133715;28;20039;-84
2023/04/29 06:16:10;;;;;;;19.00;5.57;;;;;;;;;;5099093;28;20023;-87
2023/04/29 06:18:37;;;;;;;10.80;4.57;;;;;;;;;;5098383;28;20027;-83
2023/04/29 06:21:02;;;;;;;17.35;5.45;;;;;;;;;;5115397;28;20027;-81
2023/04/29 06:23:27;;;;;;;19.17;6.35;;;;;;;;;;5115847;28;20034;-87
2023/04/29 06:25:53;;;;;;;19.38;6.50;;;;;;;;;;5115739;28;20031;-85
2023/04/29 06:28:19;;;;;;;20.20;6.03;;;;;;;;;;5117973;27;20027;-84
2023/04/29 06:30:45;;;;;;;12.23;5.47;;;;;;;;;;5102060;27;20037;-85
2023/04/29 06:33:11;;;;;;;21.23;6.25;;;;;;;;;;5119142;27;20023;-84
2023/04/29 06:35:42;;;;;;;17.58;5.78;;;;;;;;;;5119563;27;20090;-85
2023/04/29 06:38:07;;;;;;;18.05;5.85;;;;;;;;;;5119978;27;20030;-85
2023/04/29 06:40:33;;;;;;;17.20;5.65;;;;;;;;;;5085401;27;20019;-85
2023/04/29 06:42:59;;;;;;;12.13;4.70;;;;;;;;;;5137789;27;20027;-84
2023/04/29 06:45:24;;;;;;;11.82;5.07;;;;;;;;;;5137754;27;20035;-85
2023/04/29 06:47:50;;;;;;;13.07;4.55;;;;;;;;;;5119077;27;20102;-85
2023/04/29 06:50:15;;;;;;;14.52;4.50;;;;;;;;;;5101618;27;20060;-85
2023/04/29 06:52:40;;;;;;;12.95;4.63;;;;;;;;;;5118972;27;20031;-83
2023/04/29 06:55:07;;;;;;;9.88;4.32;;;;;;;;;;5118710;27;20363;-84
2023/04/29 06:57:32;;;;;;;7.57;3.97;;;;;;;;;;5101890;27;20019;-86
2023/04/29 06:59:58;;;;;;;9.32;4.13;;;;;;;;;;5118923;27;20023;-85
2023/04/29 07:02:23;;;;;;;9.30;4.22;;;;;;;;;;5118842;27;20406;-85
2023/04/29 07:04:49;;;;;;;12.00;4.10;;;;;;;;;;5118423;27;20122;-85
2023/04/29 07:07:15;;;;;;;10.25;3.97;;;;;;;;;;5137038;27;20027;-83
2023/04/29 07:09:40;;;;;;;9.27;4.38;;;;;;;;;;5136690;27;20114;-81
2023/04/29 07:12:06;;;;;;;8.98;4.50;;;;;;;;;;5119177;27;20034;-83
2023/04/29 07:14:31;;;;;;;11.63;4.15;;;;;;;;;;5118606;27;20031;-84
2023/04/29 07:16:57;;;;;;;7.80;4.22;;;;;;;;;;5118361;27;20389;-85
2023/04/29 07:19:22;;;;;;;10.10;4.03;;;;;;;;;;5101082;27;20024;-84
2023/04/29 07:21:48;;;;;;;8.30;4.28;;;;;;;;;;5138360;27;20031;-82
2023/04/29 07:24:13;;;;;;;10.38;4.28;;;;;;;;;;5136866;27;20027;-84
2023/04/29 07:26:39;;;;;;;9.60;5.00;;;;;;;;;;5136294;27;20031;-85
2023/04/29 07:29:04;;;;;;;15.60;4.78;;;;;;;;;;5136305;27;20419;-82
2023/04/29 07:31:30;;;;;;;8.88;3.95;;;;;;;;;;5136846;27;20077;-82
2023/04/29 07:33:56;;;;;;;11.23;4.05;;;;;;;;;;5136356;27;20024;-81
2023/04/29 07:36:22;;;;;;;15.60;4.70;;;;;;;;;;5101351;27;20047;-79
2023/04/29 07:38:47;;;;;;;10.48;4.28;;;;;;;;;;5099895;28;20038;-81
2023/04/29 07:41:12;;;;;;;7.80;3.97;;;;;;;;;;5135780;27;20031;-82
2023/04/29 07:43:38;;;;;;;7.93;3.45;;;;;;;;;;5136265;27;20427;-81
2023/04/29 07:46:03;;;;;;;9.55;3.90;;;;;;;;;;5136174;27;20027;-81
2023/04/29 07:48:29;;;;;;;8.30;4.80;;;;;;;;;;5117735;27;20043;-79
2023/04/29 07:50:54;;;;;;;5.95;3.75;;;;;;;;;;5100465;27;20401;-82
2023/04/29 07:53:20;;;;;;;7.47;3.95;;;;;;;;;;5117277;27;20066;-81
2023/04/29 07:55:46;;;;;;;10.20;3.78;;;;;;;;;;5135972;27;20019;-81
2023/04/29 07:58:12;;;;;;;7.50;3.45;;;;;;;;;;5136051;27;20034;-82
2023/04/29 08:00:37;;;;;;;8.98;3.60;;;;;;;;;;5135731;27;20536;-82
2023/04/29 08:03:03;;;;;;;9.65;4.10;;;;;;;;;;5135947;27;20393;-81
2023/04/29 08:05:29;;;;;;;6.85;4.15;;;;;;;;;;5135559;27;20148;-80
2023/04/29 08:07:54;;;;;;;7.00;3.55;;;;;;;;;;5118022;27;20111;-82
2023/04/29 08:10:21;;;;;;;10.43;3.75;;;;;;;;;;5135810;27;20035;-81
2023/04/29 08:12:47;;;;;;;10.65;3.58;;;;;;;;;;5117540;27;20046;-82
2023/04/29 08:15:13;;;;;;;5.85;3.45;;;;;;;;;;5099907;27;20076;-79
2023/04/29 08:17:38;;;;;;;7.43;3.17;;;;;;;;;;5117544;27;20035;-79
2023/04/29 08:20:06;;;;;;;6.43;3.45;;;;;;;;;;5135619;27;20114;-80
2023/04/29 08:22:31;;;;;;;10.23;3.40;;;;;;;;;;5117125;27;20103;-79
2023/04/29 08:24:57;;;;;;;12.48;3.30;;;;;;;;;;5135187;27;20110;-81
2023/04/29 08:27:22;;;;;;;8.65;2.90;;;;;;;;;;5116658;27;20023;-82
2023/04/29 08:29:48;;;;;;;7.80;3.10;;;;;;;;;;5116842;27;20031;-80
2023/04/29 08:32:13;;;;;;;10.27;3.53;;;;;;;;;;5110128;28;20028;-82
2023/04/29 08:34:40;;;;;;;8.07;2.92;;;;;;;;;;5125004;27;20054;-79
2023/04/29 08:37:06;;;;;;;7.68;3.25;;;;;;;;;;5134443;27;20027;-79
2023/04/29 08:39:31;;;;;;;5.78;2.90;;;;;;;;;;5098889;27;20072;-79
2023/04/29 08:41:57;;;;;;;11.75;3.40;;;;;;;;;;5089971;27;20034;-79
2023/04/29 08:44:25;;;;;;;22.63;3.55;;;;;;;;;;5108137;27;20038;-78
2023/04/29 08:46:51;;;;;;;7.50;2.60;;;;;;;;;;5106015;27;20533;-80
2023/04/29 08:49:17;;;;;;;6.18;2.53;;;;;;;;;;5082721;28;20055;-79
2023/04/29 08:51:42;;;;;;;4.63;2.60;;;;;;;;;;5112097;28;20360;-79
2023/04/29 08:54:07;;;;;;;3.97;2.65;;;;;;;;;;5112475;28;20026;-79
2023/04/29 08:56:33;;;;;;;4.75;2.80;;;;;;;;;;5094803;28;20552;-79
2023/04/29 08:59:01;;;;;;;3.42;2.42;;;;;;;;;;5096192;28;20064;-79
2023/04/29 09:01:27;;;;;;;7.93;2.80;;;;;;;;;;5096072;28;20024;-79
2023/04/29 09:04:13;;;;;;;4.07;2.47;;;;;;;;;;5078841;28;20024;-79
2023/04/29 09:06:38;;;;;;;4.75;2.53;;;;;;;;;;5113863;28;20019;-80
2023/04/29 09:09:04;;;;;;;6.93;3.00;;;;;;;;;;5078823;28;20035;-79
2023/04/29 09:11:30;;;;;;;4.38;2.60;;;;;;;;;;5095933;28;20027;-79
2023/04/29 09:14:08;;;;;;;6.13;2.35;;;;;;;;;;5113701;28;20063;-79
2023/04/29 09:16:37;;;;;;;5.88;2.28;;;;;;;;;;5080118;28;20114;-80
2023/04/29 09:19:03;;;;;;;4.38;2.50;;;;;;;;;;5079970;28;20051;-80
2023/04/29 09:21:32;;;;;;;5.80;2.70;;;;;;;;;;5095918;28;20379;-78
2023/04/29 09:24:01;;;;;;;6.18;2.35;;;;;;;;;;5114044;28;20034;-87
2023/04/29 09:26:27;;;;;;;4.95;2.50;;;;;;;;;;5078490;28;20057;-79
2023/04/29 09:29:17;;;;;;;4.95;2.45;;;;;;;;;;5095834;28;20513;-79
2023/04/29 09:31:43;;;;;;;4.13;2.55;;;;;;;;;;5096753;28;20542;-78
2023/04/29 09:34:10;;;;;;;5.82;2.70;;;;;;;;;;5113574;28;20067;-78
2023/04/29 09:36:46;;;;;;;7.00;2.17;;;;;;;;;;5095554;28;20020;-78
2023/04/29 09:39:11;;;;;;;3.78;2.60;;;;;;;;;;5113648;28;20026;-80
2023/04/29 09:41:52;;;;;;;4.82;2.30;;;;;;;;;;5113966;28;20110;-80
2023/04/29 09:44:19;;;;;;;4.38;2.60;;;;;;;;;;5113308;28;20446;-78
2023/04/29 09:46:58;;;;;;;3.28;2.40;;;;;;;;;;5095308;28;20547;-80
2023/04/29 09:49:32;;;;;;;3.20;2.20;;;;;;;;;;5108173;28;20047;-81
2023/04/29 09:51:59;;;;;;;5.65;3.28;;;;;;;;;;5115847;28;20023;-81
2023/04/29 09:54:27;;;;;;;7.00;2.90;;;;;;;;;;5115819;28;20027;-80
2023/04/29 09:56:53;;;;;;;3.95;2.10;;;;;;;;;;5082115;28;20126;-80
2023/04/29 09:59:19;;;;;;;3.15;2.38;;;;;;;;;;5115931;28;20029;-80
2023/04/29 10:01:50;;;;;;;5.20;2.40;;;;;;;;;;5116257;28;20448;-80
2023/04/29 10:04:17;;;;;;;3.08;2.05;;;;;;;;;;5137737;27;20050;-80
2023/04/29 10:06:43;;;;;;;6.25;2.30;;;;;;;;;;5102270;27;20022;-82
2023/04/29 10:09:14;;;;;;;6.70;2.40;;;;;;;;;;5119930;27;20058;-84
2023/04/29 10:11:40;;;;;;;3.30;2.03;;;;;;;;;;5120402;27;20446;-82
2023/04/29 10:14:06;;;;;;;4.57;2.38;;;;;;;;;;5119690;27;20016;-82
2023/04/29 10:16:33;;;;;;;4.63;2.05;;;;;;;;;;5119363;27;20100;-79
2023/04/29 10:19:03;;;;;;;3.25;1.98;;;;;;;;;;5119336;27;20473;-81
2023/04/29 10:21:32;;;;;;;2.60;2.03;;;;;;;;;;5119149;27;20030;-81
2023/04/29 10:23:58;;;;;;;5.75;2.42;;;;;;;;;;5119742;27;20493;-80
2023/04/29 10:26:27;;;;;;;3.03;2.00;;;;;;;;;;5119115;27;20030;-81
2023/04/29 10:28:54;;;;;;;5.63;2.20;;;;;;;;;;5102205;27;20028;-79
2023/04/29 10:31:21;;;;;;;3.63;2.10;;;;;;;;;;5102087;27;20043;-80
2023/04/29 10:33:47;;;;;;;3.85;2.00;;;;;;;;;;5102008;27;20023;-80
2023/04/29 10:36:13;;;;;;;10.30;2.30;;;;;;;;;;5137721;27;20020;-80
2023/04/29 10:38:43;;;;;;;3.67;2.10;;;;;;;;;;5118962;27;20088;-79
2023/04/29 10:41:16;;;;;;;8.43;2.53;;;;;;;;;;5101564;27;20461;-80
2023/04/29 10:43:41;;;;;;;6.80;2.25;;;;;;;;;;5101533;27;20034;-80
2023/04/29 10:46:27;;;;;;;3.75;2.50;;;;;;;;;;5118812;27;20027;-81
2023/04/29 10:49:05;;;;;;;3.55;1.95;;;;;;;;;;5118419;27;20148;-81
2023/04/29 10:51:38;;;;;;;5.13;1.95;;;;;;;;;;5101548;27;20501;-80
2023/04/29 10:54:08;;;;;;;6.47;2.70;;;;;;;;;;5118903;27;20042;-81
2023/04/29 10:56:39;;;;;;;3.22;1.77;;;;;;;;;;5137034;27;20019;-81
2023/04/29 10:59:05;;;;;;;5.05;1.90;;;;;;;;;;5118969;27;20200;-81
2023/04/29 11:01:41;;;;;;;4.38;1.88;;;;;;;;;;5118748;27;20049;-81
2023/04/29 11:04:06;;;;;;;6.10;2.05;;;;;;;;;;5136837;27;20015;-80
2023/04/29 11:06:35;;;;;;;2.38;1.90;;;;;;;;;;5101288;27;20034;-82
2023/04/29 11:09:11;;;;;;;3.22;1.63;;;;;;;;;;5118303;27;20474;-83
2023/04/29 11:11:45;;;;;;;2.75;1.83;;;;;;;;;;5101487;27;20063;-85
2023/04/29 11:14:11;;;;;;;;;;;;;;;;;;5118853;27;20033;-81
2023/04/29 11:16:37;;;;;;;3.00;1.98;;;;;;;;;;5102521;27;19907;-85
2023/04/29 11:19:05;;;;;;;3.28;2.03;;;;;;;;;;5118715;27;20501;-87
2023/04/29 11:21:35;;;;;;;3.72;2.20;;;;;;;;;;5118208;27;20026;-84
2023/04/29 11:24:02;;;;;;;4.22;2.00;;;;;;;;;;5118174;27;20081;-83
2023/04/29 11:26:27;;;;;;;5.70;2.10;;;;;;;;;;5136274;27;20025;-82
2023/04/29 11:28:53;;;;;;;6.57;2.00;;;;;;;;;;5136365;27;20018;-84
2023/04/29 11:31:18;;;;;;;5.88;2.70;;;;;;;;;;5101238;27;20114;-83
2023/04/29 11:33:45;;;;;;;4.60;1.88;;;;;;;;;;5118105;27;20478;-86
2023/04/29 11:36:11;;;;;;;4.00;1.83;;;;;;;;;;5136330;27;20023;-81
2023/04/29 11:38:39;;;;;;;7.57;1.80;;;;;;;;;;5136300;27;20085;-84
2023/04/29 11:41:04;;;;;;;5.30;2.00;;;;;;;;;;5100811;27;20027;-81
2023/04/29 11:43:30;;;;;;;7.07;2.70;;;;;;;;;;5136380;27;20114;-85
2023/04/29 11:45:55;;;;;;;4.88;2.25;;;;;;;;;;5116567;27;20477;-83
2023/04/29 11:48:23;;;;;;;7.93;2.85;;;;;;;;;;5099973;27;20027;-83
2023/04/29 11:50:50;;;;;;;6.50;2.53;;;;;;;;;;5099917;27;20409;-84
2023/04/29 11:53:19;;;;;;;6.18;2.78;;;;;;;;;;5100138;27;20118;-84
2023/04/29 11:55:46;;;;;;;6.28;2.40;;;;;;;;;;5100892;27;20153;-82
2023/04/29 11:58:13;;;;;;;8.80;2.55;;;;;;;;;;5117130;27;20398;-82
2023/04/29 12:00:39;;;;;;;5.68;2.58;;;;;;;;;;5117544;27;20050;-82
2023/04/29 12:03:19;;;;;;;5.47;2.53;;;;;;;;;;5135699;27;20084;-82
2023/04/29 12:05:52;;;;;;;7.97;2.88;;;;;;;;;;5119972;27;20030;-82
2023/04/29 12:08:22;;;;;;;7.32;2.50;;;;;;;;;;5118072;27;20458;-83
2023/04/29 12:10:48;;;;;;;7.93;2.42;;;;;;;;;;5117110;27;20031;-82
2023/04/29 12:13:14;;;;;;;11.70;3.10;;;;;;;;;;5117766;27;20031;-81
2023/04/29 12:15:39;;;;;;;8.40;2.63;;;;;;;;;;5116855;27;20054;-83
2023/04/29 12:18:05;;;;;;;5.50;2.97;;;;;;;;;;5116978;27;20080;-83
2023/04/29 12:20:31;;;;;;;7.95;2.60;;;;;;;;;;5099869;27;20049;-83
2023/04/29 12:23:10;;;;;;;6.10;2.58;;;;;;;;;;5099877;27;20031;-82
2023/04/29 12:25:36;;;;;;;5.13;2.70;;;;;;;;;;5099286;27;20470;-83
2023/04/29 12:28:03;;;;;;;6.18;2.40;;;;;;;;;;5099864;27;20143;-83
2023/04/29 12:30:28;;;;;;;4.22;2.20;;;;;;;;;;5100035;27;20027;-82
2023/04/29 12:32:54;;;;;;;4.70;2.38;;;;;;;;;;5099628;27;20031;-82
2023/04/29 12:35:20;;;;;;;4.78;2.22;;;;;;;;;;5137006;27;20023;-82
2023/04/29 12:37:49;;;;;;;7.05;2.63;;;;;;;;;;5099944;27;20015;-82
2023/04/29 12:40:16;;;;;;;3.88;2.10;;;;;;;;;;5099814;27;20035;-83
2023/04/29 12:42:43;;;;;;;2.95;2.03;;;;;;;;;;5116566;27;20031;-82
2023/04/29 12:45:31;;;;;;;8.18;2.42;;;;;;;;;;5099806;27;20083;-82
2023/04/29 12:47:56;;;;;;;5.45;2.22;;;;;;;;;;5099440;27;20023;-82
2023/04/29 12:50:38;;;;;;;5.03;2.70;;;;;;;;;;5134747;27;20180;-83
2023/04/29 12:53:05;;;;;;;2.78;1.88;;;;;;;;;;5116403;27;20067;-82
2023/04/29 12:55:34;;;;;;;4.30;2.17;;;;;;;;;;5134894;27;20023;-82
2023/04/29 12:58:01;;;;;;;6.55;2.22;;;;;;;;;;5099235;27;20049;-82
2023/04/29 13:00:26;;;;;;;6.25;2.33;;;;;;;;;;5116319;27;20470;-82
2023/04/29 13:02:52;;;;;;;5.60;2.00;;;;;;;;;;5116219;27;20037;-83
2023/04/29 13:05:17;;;;;;;4.43;1.95;;;;;;;;;;5100142;27;20065;-84
2023/04/29 13:07:43;;;;;;;3.50;1.75;;;;;;;;;;5116444;27;20031;-84
2023/04/29 13:10:10;;;;;;;4.72;2.20;;;;;;;;;;5116136;27;20031;-82
2023/04/29 13:12:36;;;;;;;4.30;2.08;;;;;;;;;;5099811;27;20035;-82
2023/04/29 13:15:02;;;;;;;3.35;2.20;;;;;;;;;;5116137;27;20413;-82
2023/04/29 13:17:27;;;;;;;5.80;2.03;;;;;;;;;;5116062;28;20027;-82
2023/04/29 13:19:52;;;;;;;4.25;2.20;;;;;;;;;;5134662;27;20542;-83
2023/04/29 13:22:18;;;;;;;6.63;1.90;;;;;;;;;;5134541;27;20027;-83
2023/04/29 13:24:43;;;;;;;7.32;2.00;;;;;;;;;;5116148;28;20031;-83
2023/04/29 13:27:09;;;;;;;5.13;1.77;;;;;;;;;;5099288;28;20065;-82
2023/04/29 13:29:34;;;;;;;3.60;1.80;;;;;;;;;;5134468;27;20027;-82
2023/04/29 13:32:00;;;;;;;2.40;1.50;;;;;;;;;;5099218;28;20034;-82
2023/04/29 13:34:25;;;;;;;2.10;1.45;;;;;;;;;;5098929;28;20031;-83
2023/04/29 13:36:51;;;;;;;4.13;1.73;;;;;;;;;;5134478;27;20029;-83
2023/04/29 13:39:16;;;;;;;5.60;2.10;;;;;;;;;;5138402;27;20480;-82
2023/04/29 13:41:42;;;;;;;4.05;1.63;;;;;;;;;;5139143;27;20035;-83
2023/04/29 13:44:07;;;;;;;7.40;1.90;;;;;;;;;;5138683;27;20027;-82
2023/04/29 13:46:33;;;;;;;2.92;1.48;;;;;;;;;;5120622;27;20488;-82
2023/04/29 13:48:58;;;;;;;2.17;1.60;;;;;;;;;;5120190;27;20023;-83
2023/04/29 13:51:23;;;;;;;2.08;1.50;;;;;;;;;;5102768;27;20486;-82
2023/04/29 13:53:49;;;;;;;5.47;1.95;;;;;;;;;;5140241;27;20220;-82
2023/04/29 13:56:15;;;;;;;6.00;1.85;;;;;;;;;;5120139;27;20042;-82
2023/04/29 13:58:40;;;;;;;1.98;1.55;;;;;;;;;;5119886;27;20019;-83
2023/04/29 14:01:06;;;;;;;2.33;1.40;;;;;;;;;;5138299;27;20578;-82
2023/04/29 14:03:31;;;;;;;2.83;1.60;;;;;;;;;;5138533;27;20027;-80
2023/04/29 14:05:57;;;;;;;2.97;1.45;;;;;;;;;;5120505;27;20039;-85
2023/04/29 14:08:22;;;;;;;2.35;1.45;;;;;;;;;;5103115;27;20466;-83
2023/04/29 14:10:48;;;;;;;4.60;2.20;;;;;;;;;;5085765;27;20023;-79
2023/04/29 14:13:13;;;;;;;9.82;2.40;;;;;;;;;;5102560;27;20449;-82
2023/04/29 14:15:38;;;;;;;6.07;3.05;;;;;;;;;;5137879;27;20028;-85
2023/04/29 14:18:06;;;;;;;3.13;2.28;;;;;;;;;;5085329;27;20113;-84
2023/04/29 14:20:32;;;;;;;3.67;1.88;;;;;;;;;;5119647;27;20469;-86
2023/04/29 14:22:57;;;;;;;4.25;2.40;;;;;;;;;;5101840;27;20035;-86
2023/04/29 14:25:23;;;;;;;4.25;2.20;;;;;;;;;;5101971;27;20027;-85
2023/04/29 14:27:48;;;;;;;5.63;2.05;;;;;;;;;;5119739;27;20098;-86
2023/04/29 14:30:13;;;;;;;4.38;1.90;;;;;;;;;;5137506;27;20098;-85
2023/04/29 14:32:39;;;;;;;3.78;2.17;;;;;;;;;;5119146;27;20125;-85
2023/04/29 14:35:05;;;;;;;3.20;2.03;;;;;;;;;;5119261;27;20102;-85
2023/04/29 14:37:30;;;;;;;6.88;1.85;;;;;;;;;;5102198;27;20031;-84
2023/04/29 14:39:56;;;;;;;5.22;2.22;;;;;;;;;;5102062;27;20521;-84
2023/04/29 14:42:21;;;;;;;7.13;1.75;;;;;;;;;;5102080;27;20030;-84